METAR Data
IDs: Format: Raw Decoded Include TAF

Data at: 0142 UTC 12 May 2021

KIND 120054Z 36008KT 10SM BKN180 BKN250 11/M01 A3031 RMK AO2 SLP267 T01061006
KIND 112354Z 36009KT 10SM FEW060 SCT160 OVC250 12/M01 A3029 RMK AO2 SLP258 T01171006 10144 20117 53008
KIND 112254Z 02011KT 10SM FEW060 BKN170 OVC250 13/M01 A3027 RMK AO2 SLP253 T01281006
KIND 112154Z 36013G19KT 10SM FEW060 BKN170 OVC250 13/00 A3027 RMK AO2 SLP252 T01280000
KIND 112054Z 36012G17KT 10SM FEW060 BKN170 BKN250 14/00 A3026 RMK AO2 SLP248 T01390000 56013
KIND 111954Z 36009G19KT 320V040 10SM FEW060 BKN170 BKN250 14/00 A3027 RMK AO2 SLP251 T01390000
KIND 111854Z 34008G17KT 10SM SCT060 BKN170 BKN250 14/01 A3028 RMK AO2 SLP254 T01440006
KIND 111754Z 36014G21KT 10SM SCT050 BKN170 BKN230 14/00 A3030 RMK AO2 SLP261 60000 T01390000 10139 20067 58002
KIND 111654Z 01013G22KT 10SM FEW060 FEW100 SCT250 13/M01 A3031 RMK AO2 SLP264 T01331011
KIND 111554Z VRB05G17KT 10SM FEW100 SCT250 12/M01 A3030 RMK AO2 SLP262 T01171011
KIND 111454Z 04010KT 10SM FEW085 FEW100 11/00 A3030 RMK AO2 SLP263 60000 T01110000 51018
KIND 111354Z 03010KT 10SM FEW085 BKN100 BKN200 10/00 A3029 RMK AO2 SLP258 T01000000
KIND 111254Z 03009KT 10SM FEW060 BKN075 08/01 A3027 RMK AO2 RAE13 SLP253 P0000 T00780006
KIND 111154Z 04007KT 10SM -RA SCT044 BKN055 BKN070 07/02 A3025 RMK AO2 RAB39 SLP246 P0000 60000 T00670022 10094 20067 51019
KIND 111054Z 05010KT 10SM BKN044 BKN060 OVC120 08/02 A3023 RMK AO2 RAE0958 SLP237 P0000 T00780017
KIND 110954Z 02009KT 10SM -RA OVC044 08/04 A3022 RMK AO2 RAB35 SLP233 P0000 T00780039
KIND 110854Z 02009KT 10SM FEW042 BKN049 OVC060 09/06 A3019 RMK AO2 SLP224 T00890056 53007
KIND 110754Z 03005KT 10SM BKN060 OVC080 09/07 A3018 RMK AO2 SLP220 T00940072
KIND 110732Z 01009KT 10SM FEW012 BKN060 OVC085 09/07 A3018 RMK AO2 T00940072
KIND 110702Z 35009KT 10SM BKN013 OVC055 09/07 A3018 RMK AO2 T00940072
KIND 110654Z 35008KT 10SM SCT013 OVC060 09/07 A3018 RMK AO2 SLP219 T00940072
KIND 110554Z 36005KT 10SM FEW055 SCT085 09/06 A3017 RMK AO2 SLP217 T00940061 10139 20094 53003
KIND 110454Z 03006KT 10SM SCT060 OVC110 11/06 A3016 RMK AO2 SLP213 T01060061 401670011
KIND 110354Z 36005KT 10SM BKN060 OVC110 11/06 A3017 RMK AO2 SLP215 T01110061
KIND 110254Z 02007KT 10SM FEW060 BKN100 11/06 A3016 RMK AO2 SLP215 T01110061 53017
KIND 110154Z 23004KT 10SM BKN060 BKN200 OVC250 12/05 A3013 RMK AO2 SLP205 T01170050
KIND 110054Z 21005KT 10SM FEW065 BKN200 OVC250 12/05 A3011 RMK AO2 SLP198 T01220050
KIND 102354Z 19007KT 10SM SCT065 BKN210 OVC250 13/04 A3011 RMK AO2 SLP198 T01330039 10167 20133 55003
KIND 102254Z 22006KT 10SM SCT060 BKN210 OVC250 14/04 A3011 RMK AO2 SLP198 T01440039
KIND 102154Z 22006KT 10SM SCT060 BKN210 BKN250 16/04 A3011 RMK AO2 SLP197 T01560039
KIND 102054Z 27004KT 10SM SCT060 BKN210 BKN250 16/03 A3012 RMK AO2 SLP202 T01560033 56008
KIND 101954Z 25006KT 10SM FEW060 SCT180 BKN250 16/03 A3013 RMK AO2 SLP204 T01560033
KIND 101854Z 31005KT 10SM SCT060 SCT180 BKN250 16/03 A3013 RMK AO2 SLP205 T01560033
KIND 101754Z VRB06KT 10SM BKN043 BKN250 14/04 A3015 RMK AO2 SLP210 T01440039 10150 20039 51003
KIND 101654Z VRB05KT 10SM SCT040 SCT250 15/05 A3014 RMK AO2 SLP208 T01500050
KIND 101554Z 29003KT 10SM FEW033 FEW150 13/04 A3015 RMK AO2 SLP210 T01280044
KIND 101454Z 24004KT 10SM FEW025 FEW150 12/05 A3014 RMK AO2 SLP208 T01170050 50006
KIND 101354Z 33005KT 10SM FEW025 FEW150 10/04 A3014 RMK AO2 SLP210 T01000044